• Join FlightAware (Why Join?)
  • Login
  • US Flag 
05:59AM EST


 

Airport Tracker/Info


-or-


 

Live Flight TrackerFlight Track Log ✈ UPS9851 ✈ 05-Mar-2014 ✈ KPIE - KSDF

Flight Track Log - Related Links

Times and Time Zones

All times are in EST time to prevent confusion due to time zone crossing. See the UPS9851 flight status page for this flight to view local times or setup timezone preferences in your user account.

Time Position Orientation Groundspeed Altitude Reporting Facility
EST Latitude Longitude Course Direction KTS MPH feet Rate Location/Type
09:48PM 27.9167 -82.6833 360° North 175 201 500  Level Tampa TRACON
09:49PM 27.9500 -82.6833 360° North 185 213 2,600 1,860 Climbing Tampa TRACON
09:50PM 28.0000 -82.6500 30° Northeast 261 300 3,900 660 Climbing Tampa TRACON
09:51PM 28.1000 -82.6667 352° North 291 335 4,000 1,920 Climbing Tampa TRACON
09:53PM 28.2458 -82.6994 349° North 291 335 9,800 2,700 Climbing Jacksonville Center
09:54PM 28.3397 -82.7156 351° North 309 356 12,000 2,700 Climbing Jacksonville Center
09:55PM 28.4461 -82.7319 352° North 351 404 15,200 2,880 Climbing Jacksonville Center
09:56PM 28.5547 -82.7531 350° North 379 436 17,800 2,460 Climbing Jacksonville Center
09:57PM 28.6633 -82.7647 355° North 393 452 20,200 1,980 Climbing Jacksonville Center
09:58PM 28.7633 -82.7931 346° North 393 452 21,800 1,560 Climbing Jacksonville Center
10:04PM 29.4278 -83.0422 347° North 491 565 30,300 1,560 Climbing FlightAware ADS-B (KMCO)
10:04PM 29.5044 -83.0644 347° North 472 543 31,300 1,920 Climbing Jacksonville Center
10:05PM 29.6381 -83.1006 347° North 500 575 33,500 2,280 Climbing Jacksonville Center
10:06PM 29.7736 -83.1367 347° North 506 582 35,900 840 Climbing Jacksonville Center
10:12PM 30.6008 -83.3539 347° North 487 560 39,900 540 Climbing FlightAware ADS-B (KTLH)
10:13PM 30.7196 -83.3841 347° North 491 565 39,900  Level FlightAware ADS-B (KTLH)
10:15PM 30.9810 -83.4579 347° North 492 566 39,900  Level FlightAware ADS-B (KTLH)
10:17PM 31.1580 -83.5065 347° North 489 563 39,900  Level FlightAware ADS-B (KTLH)
10:17PM 31.2393 -83.5290 347° North 487 560 39,900  Level FlightAware ADS-B (KTLH)
10:18PM 31.3594 -83.5622 347° North 486 559 39,900  Level Atlanta Center
10:19PM 31.4892 -83.6006 346° North 486 559 39,900  Level Atlanta Center
10:20PM 31.6228 -83.6389 346° North 480 552 39,900  Level Atlanta Center
10:21PM 31.7378 -83.6678 348° North 480 552 39,900  Level Atlanta Center
10:22PM 31.8881 -83.7111 346° North 487 560 39,900  Level Atlanta Center
10:23PM 32.0072 -83.7450 346° North 494 568 39,900  Level Atlanta Center
10:24PM 32.1408 -83.7836 346° North 488 562 39,900  Level Atlanta Center
10:25PM 32.2725 -83.8203 347° North 488 562 39,900  Level Atlanta Center
10:26PM 32.4019 -83.8567 347° North 482 555 39,900  Level Atlanta Center
10:27PM 32.5417 -83.8983 346° North 475 547 39,900  Level Atlanta Center
10:28PM 32.6692 -83.9328 347° North 475 547 39,900  Level Atlanta Center
10:29PM 32.7986 -83.9672 347° North 475 547 39,900  Level Atlanta Center
10:30PM 32.9258 -84.0042 346° North 470 541 39,900  Level Atlanta Center
10:31PM 33.0533 -84.0439 345° North 470 541 39,900  Level Atlanta Center
10:32PM 33.1806 -84.0836 345° North 470 541 39,900  Level Atlanta Center
10:33PM 33.3078 -84.1183 347° North 464 534 39,900  Level Atlanta Center
10:34PM 33.4353 -84.1533 347° North 470 541 39,900  Level Atlanta Center
10:35PM 33.5478 -84.1858 346° North 470 541 39,900  Level Atlanta Center
10:36PM 33.6897 -84.2236 348° North 470 541 39,900  Level Atlanta Center
10:37PM 33.8128 -84.2614 346° North 470 541 39,900  Level Atlanta Center
10:38PM 33.9400 -84.2967 347° North 470 541 39,900  Level Atlanta Center
10:39PM 34.0653 -84.3322 347° North 466 536 39,900  Level Atlanta Center
10:40PM 34.1883 -84.3628 348° North 478 550 39,900  Level Atlanta Center
10:41PM 34.3114 -84.4008 346° North 465 535 39,900  Level Atlanta Center
10:42PM 34.4386 -84.4392 346° North 465 535 39,900  Level Atlanta Center
10:48PM 34.4588 -84.4462 348° North 470 541 39,900  Level FlightAware ADS-B (KMDQ)
10:49PM 35.3389 -84.6931 348° North 471 542 39,900  Level Atlanta Center
10:50PM 35.4725 -84.7069 355° North 471 542 39,900  Level Atlanta Center
10:51PM 35.6036 -84.7233 354° North 471 542 39,900 -1,560 Level Atlanta Center
10:57PM 36.2943 -84.7972 355° North 470 541 29,900 -1,500 Descending FlightAware ADS-B
10:58PM 36.5115 -84.8226 355° North 467 537 29,500 -660 Descending FlightAware ADS-B
10:59PM 36.6456 -84.8382 355° North 465 535 28,400 -1,140 Descending FlightAware ADS-B
11:00PM 36.7838 -84.8543 355° North 462 532 27,200 -1,320 Descending FlightAware ADS-B
11:01PM 36.8976 -84.8678 355° North 464 534 25,900 -1,620 Descending FlightAware ADS-B
11:02PM 37.0348 -84.8842 355° North 468 539 24,100 -1,860 Descending FlightAware ADS-B
11:03PM 37.1407 -84.8966 355° North 442 509 22,200 -2,340 Descending FlightAware ADS-B
11:04PM 37.2918 -84.9147 355° North 418 481 19,300 -2,820 Descending FlightAware ADS-B
11:06PM 37.4258 -84.9307 355° North 383 441 15,700 -2,880 Descending FlightAware ADS-B
11:06PM 37.4833 -84.9377 354° North 367 422 13,600 -1,980 Descending FlightAware ADS-B
11:09PM 37.6980 -85.0308 311° West 299 344 9,800 -1,500 Descending FlightAware ADS-B
11:10PM 37.7503 -85.1032 313° West 271 312 8,800 -1,080 Descending FlightAware ADS-B
11:11PM 37.7875 -85.1789 270° West 272 313 7,700 -840 Descending FlightAware ADS-B
11:12PM 37.7863 -85.2667 269° West 264 304 7,200 -1,080 Descending FlightAware ADS-B
11:13PM 37.7852 -85.3844 269° West 268 308 5,400 -1,320 Descending FlightAware ADS-B
11:14PM 37.7852 -85.4859 270° West 231 266 4,100 -780 Descending FlightAware ADS-B
11:15PM 37.7819 -85.5733 286° West 232 267 3,700 -300 Descending FlightAware ADS-B
11:16PM 37.8131 -85.5987 324° Northwest 229 264 3,700  Level FlightAware ADS-B (EPWR / WRO)
11:16PM 37.8296 -85.6199 334° Northwest 229 264 3,700  Level FlightAware ADS-B
11:17PM 37.8716 -85.6369 346° North 225 259 3,700  Level FlightAware ADS-B (EPWR / WRO)
11:18PM 37.9512 -85.6634 345° North 225 259 3,700 -240 Level FlightAware ADS-B
11:19PM 38.0280 -85.6772 345° North 212 244 3,200 -840 Descending FlightAware ADS-B
11:20PM 38.0860 -85.7095 345° North 167 192 1,800 -1,140 Descending FlightAware ADS-B
11:21PM 38.1078 -85.7171 345° North 123 142 1,200 -540 Descending FlightAware ADS-B
11:22PM 38.1333 -85.7167 345° North 115 132 1,100 -120 Descending Louisville TRACON
11:24PM 38.1741 -85.7365 208° Southwest  Level Estimated